sim
Sign-in with your pilot id or email,
or register
Callsign
Passwort

Schedule Details

Flight Number: RYR2319 (3)
Departure: Bratislava M. R. Stefanik Airport (LZIB) at 20:00
Arrival: London Stansted Airport (EGSS) at 22:25
Route: Ryanair Passenger Schedule. Enter filed route here before submitting Pirep.

Weather Information
Getting current METAR information for LZIB 232000Z 05007KT CAVOK 13/10 Q1017
Getting current METAR information for EGSS 232020Z AUTO 15004G14KT 100V230 5000 -RADZ BKN006 OVC009 12/11 Q1008

Schedule Frequency

Route Map